createdAt,value
2018-08-30T00:00:19.689Z,101256.64
2018-08-30T00:03:01.431Z,101253.55
2018-08-30T00:05:43.367Z,101260.59
2018-08-30T00:08:34.695Z,101269.38
2018-08-30T00:11:08.308Z,101265.18
2018-08-30T00:13:38.263Z,101270.65
2018-08-30T00:16:11.086Z,101274.25
2018-08-30T00:19:00.668Z,101281.39
2018-08-30T00:21:29.612Z,101282.66
2018-08-30T00:24:20.985Z,101284.91
2018-08-30T00:26:49.865Z,101287.78
2018-08-30T00:29:31.273Z,101299.20
2018-08-30T00:32:07.372Z,101299.58
2018-08-30T00:34:41.911Z,101308.91
2018-08-30T00:37:21.017Z,101308.98
2018-08-30T00:39:51.940Z,101310.27
2018-08-30T00:42:23.880Z,101316.38
2018-08-30T00:44:54.860Z,101312.90
2018-08-30T00:47:31.006Z,101315.08
2018-08-30T00:50:00.956Z,101317.23
2018-08-30T00:52:29.953Z,101320.00
2018-08-30T00:54:58.895Z,101326.83
2018-08-30T00:57:36.103Z,101327.08
2018-08-30T01:00:10.377Z,101328.78
2018-08-30T01:02:43.920Z,101323.52
2018-08-30T01:05:23.372Z,101326.83
2018-08-30T01:08:00.170Z,101330.80
2018-08-30T01:10:43.163Z,101335.91
2018-08-30T01:13:17.864Z,101336.46
2018-08-30T01:15:53.148Z,101339.69
2018-08-30T01:18:22.090Z,101346.56
2018-08-30T01:21:01.090Z,101342.15
2018-08-30T01:23:30.009Z,101347.29
2018-08-30T01:25:59.893Z,101349.48
2018-08-30T01:28:41.230Z,101345.70
2018-08-30T01:31:14.802Z,101354.16
2018-08-30T01:33:45.767Z,101356.16
2018-08-30T01:36:19.415Z,101363.50
2018-08-30T01:38:54.659Z,101361.63
2018-08-30T01:41:31.403Z,101361.63
2018-08-30T01:44:05.744Z,101365.12
2018-08-30T01:46:47.138Z,101368.72
2018-08-30T01:49:16.042Z,101363.00
2018-08-30T01:51:52.214Z,101364.83
2018-08-30T01:54:24.408Z,101370.03
2018-08-30T01:57:00.801Z,101365.66
2018-08-30T01:59:33.102Z,101366.17
2018-08-30T02:04:57.864Z,101371.52
2018-08-30T02:07:30.026Z,101369.48
2018-08-30T02:09:59.031Z,101361.12
2018-08-30T02:12:37.975Z,101362.74
2018-08-30T02:15:17.012Z,101360.97
2018-08-30T02:17:51.107Z,101363.16
2018-08-30T02:20:24.776Z,101367.80
2018-08-30T02:22:58.815Z,101362.02
2018-08-30T02:25:27.965Z,101364.18
2018-08-30T02:28:02.726Z,101361.84
2018-08-30T02:30:54.124Z,101374.70
2018-08-30T02:33:25.350Z,101379.81
2018-08-30T02:35:57.586Z,101374.84
2018-08-30T02:38:37.591Z,101382.23
2018-08-30T02:41:08.671Z,101385.97
2018-08-30T02:43:41.766Z,101387.28
2018-08-30T02:46:29.640Z,101388.43
2018-08-30T02:49:10.841Z,101388.64
2018-08-30T02:51:44.030Z,101385.02
2018-08-30T02:57:11.243Z,101386.77
2018-08-30T02:59:41.227Z,101390.85
2018-08-30T03:02:11.178Z,101398.23
2018-08-30T03:04:45.685Z,101399.51
2018-08-30T03:07:21.842Z,101402.10
2018-08-30T03:09:50.893Z,101394.97
2018-08-30T03:12:19.858Z,101397.73
2018-08-30T03:15:02.524Z,101403.88
2018-08-30T03:17:42.859Z,101412.93
2018-08-30T03:20:25.888Z,101418.02
2018-08-30T03:22:56.888Z,101416.66
2018-08-30T03:25:25.857Z,101425.84
2018-08-30T03:28:00.521Z,101422.78
2018-08-30T03:30:39.323Z,101418.62
2018-08-30T03:33:10.156Z,101420.40
2018-08-30T03:35:39.139Z,101420.36
2018-08-30T03:38:10.108Z,101425.92
2018-08-30T03:40:39.241Z,101425.54
2018-08-30T03:43:08.177Z,101420.57
2018-08-30T03:45:37.133Z,101428.09
2018-08-30T03:48:17.502Z,101428.22
2018-08-30T03:50:46.492Z,101427.88
2018-08-30T03:53:18.480Z,101432.20
2018-08-30T03:55:51.148Z,101432.55
2018-08-30T03:58:20.133Z,101437.52
2018-08-30T04:00:50.035Z,101436.96
2018-08-30T04:03:23.422Z,101443.42
2018-08-30T04:05:55.036Z,101446.70
2018-08-30T04:08:26.123Z,101450.05
2018-08-30T04:11:01.114Z,101443.33
2018-08-30T04:13:49.013Z,101452.30
2018-08-30T04:16:23.974Z,101454.55
2018-08-30T04:19:07.523Z,101456.50
2018-08-30T04:21:37.102Z,101457.44
2018-08-30T04:24:13.158Z,101460.49
2018-08-30T04:26:52.861Z,101455.81
2018-08-30T04:29:22.842Z,101462.65
2018-08-30T04:31:53.790Z,101464.52
2018-08-30T04:34:23.780Z,101465.63
2018-08-30T04:36:58.395Z,101462.40
2018-08-30T04:39:47.131Z,101465.23
2018-08-30T04:42:16.155Z,101464.19
2018-08-30T04:44:48.597Z,101470.98
2018-08-30T04:47:21.312Z,101473.39
2018-08-30T04:49:50.288Z,101473.03
2018-08-30T04:52:19.288Z,101476.73
2018-08-30T04:54:53.951Z,101476.12
2018-08-30T05:00:16.485Z,101485.45
2018-08-30T05:02:47.576Z,101491.80
2018-08-30T05:05:19.800Z,101488.64
2018-08-30T05:07:49.054Z,101493.06
2018-08-30T05:10:19.003Z,101499.00
2018-08-30T05:12:48.015Z,101507.81
2018-08-30T05:15:21.930Z,101509.02
2018-08-30T05:17:57.940Z,101511.62
2018-08-30T05:20:30.409Z,101504.73
2018-08-30T05:23:05.201Z,101508.35
2018-08-30T05:28:27.924Z,101511.23
2018-08-30T05:31:01.565Z,101507.87
2018-08-30T05:33:30.535Z,101516.16
2018-08-30T05:36:01.506Z,101521.27
2018-08-30T05:38:42.755Z,101521.18
2018-08-30T05:41:22.478Z,101521.94
2018-08-30T05:44:05.858Z,101527.53
2018-08-30T05:46:39.141Z,101532.22
2018-08-30T05:49:17.849Z,101536.03
2018-08-30T05:51:58.804Z,101539.70
2018-08-30T05:54:29.795Z,101542.42
2018-08-30T05:57:02.347Z,101537.94
2018-08-30T05:59:37.145Z,101536.83
2018-08-30T06:02:07.104Z,101539.67
2018-08-30T06:04:41.628Z,101549.27
2018-08-30T06:07:14.260Z,101545.19
2018-08-30T06:09:43.192Z,101541.98
2018-08-30T06:12:16.633Z,101545.41
2018-08-30T06:14:45.547Z,101545.86
2018-08-30T06:17:14.447Z,101550.69
2018-08-30T06:19:43.486Z,101554.52
2018-08-30T06:22:12.354Z,101561.41
2018-08-30T06:24:41.281Z,101560.25
2018-08-30T06:27:22.875Z,101562.02
2018-08-30T06:30:06.317Z,101567.23
2018-08-30T06:32:47.986Z,101568.20
2018-08-30T06:35:16.853Z,101574.70
2018-08-30T06:37:45.839Z,101572.03
2018-08-30T06:40:20.463Z,101569.56
2018-08-30T06:42:49.445Z,101578.87
2018-08-30T06:45:18.363Z,101575.85
2018-08-30T06:48:00.095Z,101582.19
2018-08-30T06:50:31.050Z,101586.83
2018-08-30T06:52:59.955Z,101590.14
2018-08-30T06:55:28.852Z,101585.00
2018-08-30T06:57:57.753Z,101598.66
2018-08-30T07:00:33.821Z,101600.06
2018-08-30T07:03:14.465Z,101604.69
2018-08-30T07:05:43.374Z,101605.50
2018-08-30T07:08:12.701Z,101606.40
2018-08-30T07:10:46.568Z,101605.91
2018-08-30T07:13:22.938Z,101606.65
2018-08-30T07:15:56.067Z,101614.25
2018-08-30T07:18:25.084Z,101615.41
2018-08-30T07:20:53.934Z,101615.81
2018-08-30T07:23:23.063Z,101607.61
2018-08-30T07:25:51.973Z,101616.87
2018-08-30T07:28:20.972Z,101611.69
2018-08-30T07:30:49.944Z,101611.08
2018-08-30T07:33:18.822Z,101618.73
2018-08-30T07:35:47.750Z,101618.78
2018-08-30T07:38:16.656Z,101619.30
2018-08-30T07:40:45.560Z,101622.61
2018-08-30T07:43:16.487Z,101624.22
2018-08-30T07:45:50.380Z,101626.64
2018-08-30T07:48:24.111Z,101632.49
2018-08-30T07:50:54.109Z,101632.20
2018-08-30T07:53:22.998Z,101635.88
2018-08-30T07:56:10.341Z,101635.98
2018-08-30T07:58:51.580Z,101635.31
2018-08-30T08:01:28.671Z,101637.27
2018-08-30T08:04:02.023Z,101644.92
2018-08-30T08:06:42.973Z,101649.50
2018-08-30T08:09:16.376Z,101654.83
2018-08-30T08:11:45.349Z,101654.45
2018-08-30T08:14:20.236Z,101658.98
2018-08-30T08:16:49.202Z,101656.67
2018-08-30T08:19:40.322Z,101654.73
2018-08-30T08:22:27.856Z,101656.44
2018-08-30T08:25:16.393Z,101663.11
2018-08-30T08:27:46.422Z,101659.33
2018-08-30T08:30:19.591Z,101664.93
2018-08-30T08:32:56.769Z,101662.79
2018-08-30T08:35:25.717Z,101662.34
2018-08-30T08:38:05.079Z,101662.64
2018-08-30T08:40:34.037Z,101663.41
2018-08-30T08:43:13.078Z,101672.75
2018-08-30T08:45:42.096Z,101675.91
2018-08-30T08:48:11.045Z,101675.88
2018-08-30T08:50:46.425Z,101675.97
2018-08-30T08:53:20.756Z,101682.98
2018-08-30T08:56:03.207Z,101684.30
2018-08-30T08:58:38.708Z,101690.33
2018-08-30T09:01:08.380Z,101692.73
2018-08-30T09:03:39.921Z,101693.19
2018-08-30T09:06:08.845Z,101691.82
2018-08-30T09:08:38.958Z,101693.19
2018-08-30T09:11:09.916Z,101696.26
2018-08-30T09:13:39.972Z,101701.62
2018-08-30T09:16:10.880Z,101694.90
2018-08-30T09:18:39.750Z,101703.06
2018-08-30T09:21:09.871Z,101699.23
2018-08-30T09:23:40.825Z,101695.46
2018-08-30T09:26:09.854Z,101699.48
2018-08-30T09:28:38.744Z,101696.69
2018-08-30T09:31:08.859Z,101691.70
2018-08-30T09:33:39.647Z,101687.78
2018-08-30T09:36:08.559Z,101699.87
2018-08-30T09:38:37.712Z,101694.93
2018-08-30T09:41:06.655Z,101693.10
2018-08-30T09:43:35.549Z,101690.13
2018-08-30T09:46:04.512Z,101690.87
2018-08-30T09:48:33.401Z,101696.18
2018-08-30T09:51:02.381Z,101698.88
2018-08-30T09:53:36.492Z,101699.35
2018-08-30T09:56:06.191Z,101693.28
2018-08-30T09:58:40.676Z,101691.09
2018-08-30T10:01:15.047Z,101687.53
2018-08-30T10:03:47.745Z,101695.84
2018-08-30T10:06:16.807Z,101699.97
2018-08-30T10:08:45.899Z,101706.52
2018-08-30T10:11:14.827Z,101702.38
2018-08-30T10:13:43.771Z,101700.09
2018-08-30T10:16:18.657Z,101700.50
2018-08-30T10:18:49.597Z,101705.73
2018-08-30T10:21:19.533Z,101703.92
2018-08-30T10:23:48.407Z,101714.27
2018-08-30T10:26:23.939Z,101710.29
2018-08-30T10:28:59.834Z,101708.59
2018-08-30T10:31:40.926Z,101716.19
2018-08-30T10:34:09.765Z,101709.08
2018-08-30T10:36:42.413Z,101717.36
2018-08-30T10:39:12.371Z,101710.26
2018-08-30T10:41:53.351Z,101711.25
2018-08-30T10:44:23.238Z,101715.27
2018-08-30T10:46:52.251Z,101710.84
2018-08-30T10:49:24.668Z,101710.30
2018-08-30T10:51:57.082Z,101711.06
2018-08-30T10:54:26.149Z,101709.48
2018-08-30T10:56:59.384Z,101705.05
2018-08-30T10:59:34.497Z,101709.09
2018-08-30T11:02:03.441Z,101707.40
2018-08-30T11:04:32.552Z,101708.47
2018-08-30T11:07:09.287Z,101702.47
2018-08-30T11:09:38.456Z,101708.86
2018-08-30T11:12:08.500Z,101704.93
2018-08-30T11:14:38.417Z,101706.91
2018-08-30T11:17:07.880Z,101709.38
2018-08-30T11:19:40.947Z,101704.64
2018-08-30T11:22:13.569Z,101715.45
2018-08-30T11:24:53.649Z,101718.11
2018-08-30T11:27:30.451Z,101713.50
2018-08-30T11:30:02.843Z,101706.33
2018-08-30T11:32:31.846Z,101705.67
2018-08-30T11:35:00.745Z,101709.47
2018-08-30T11:37:29.858Z,101698.03
2018-08-30T11:39:58.736Z,101700.94
2018-08-30T11:42:27.640Z,101700.00
2018-08-30T11:45:03.590Z,101707.40
2018-08-30T11:47:32.494Z,101707.95
2018-08-30T11:50:01.389Z,101708.59
2018-08-30T11:52:32.402Z,101718.61
2018-08-30T11:55:01.286Z,101722.94
2018-08-30T11:57:30.179Z,101729.53
2018-08-30T11:59:59.064Z,101719.24
2018-08-30T12:02:27.964Z,101724.07
2018-08-30T12:04:56.868Z,101728.55
2018-08-30T12:07:35.584Z,101728.63
2018-08-30T12:10:04.965Z,101727.30
2018-08-30T12:12:39.472Z,101725.44
2018-08-30T12:15:08.464Z,101718.56
2018-08-30T12:17:44.470Z,101726.56
2018-08-30T12:20:13.365Z,101733.09
2018-08-30T12:22:42.234Z,101736.59
2018-08-30T12:25:19.557Z,101731.97
2018-08-30T12:27:48.460Z,101726.03
2018-08-30T12:30:17.392Z,101725.11
2018-08-30T12:32:53.780Z,101727.83
2018-08-30T12:35:23.580Z,101725.41
2018-08-30T12:38:03.052Z,101727.27
2018-08-30T12:40:32.457Z,101728.34
2018-08-30T12:43:07.720Z,101727.50
2018-08-30T12:45:37.120Z,101717.52
2018-08-30T12:48:07.352Z,101726.78
2018-08-30T12:50:40.019Z,101720.28
2018-08-30T12:53:10.583Z,101721.36
2018-08-30T12:55:40.108Z,101713.20
2018-08-30T12:58:09.172Z,101714.32
2018-08-30T13:00:40.081Z,101716.05
2018-08-30T13:03:21.041Z,101723.47
2018-08-30T13:05:58.337Z,101724.82
2018-08-30T13:08:30.458Z,101723.38
2018-08-30T13:11:00.710Z,101724.64
2018-08-30T13:13:36.614Z,101719.18
2018-08-30T13:16:05.688Z,101723.09
2018-08-30T13:18:34.611Z,101733.75
2018-08-30T13:21:07.860Z,101732.00
2018-08-30T13:23:44.963Z,101724.86
2018-08-30T13:26:14.823Z,101735.96
2018-08-30T13:28:44.809Z,101732.44
2018-08-30T13:31:13.811Z,101728.77
2018-08-30T13:33:42.998Z,101731.14
2018-08-30T13:36:12.084Z,101737.68
2018-08-30T13:38:43.008Z,101732.25
2018-08-30T13:41:17.572Z,101724.97
2018-08-30T13:43:46.436Z,101726.66
2018-08-30T13:46:25.427Z,101732.97
2018-08-30T13:48:54.638Z,101737.02
2018-08-30T13:51:24.400Z,101730.52
2018-08-30T13:53:53.402Z,101729.20
2018-08-30T13:56:22.384Z,101726.53
2018-08-30T13:59:03.943Z,101730.27
2018-08-30T14:01:33.468Z,101723.83
2018-08-30T14:04:02.636Z,101725.25
2018-08-30T14:06:38.174Z,101731.85
2018-08-30T14:09:07.272Z,101730.26
2018-08-30T14:11:39.599Z,101726.14
2018-08-30T14:14:09.638Z,101731.80
2018-08-30T14:16:39.351Z,101726.58
2018-08-30T14:19:10.018Z,101722.35
2018-08-30T14:21:43.108Z,101722.69
2018-08-30T14:24:13.930Z,101724.42
2018-08-30T14:26:47.551Z,101727.95
2018-08-30T14:29:16.376Z,101730.83
2018-08-30T14:31:49.719Z,101734.34
2018-08-30T14:34:21.046Z,101731.30
2018-08-30T14:37:00.731Z,101727.72
2018-08-30T14:39:30.949Z,101725.77
2018-08-30T14:42:08.212Z,101729.52
2018-08-30T14:44:40.783Z,101727.05
2018-08-30T14:47:11.089Z,101726.11
2018-08-30T14:49:40.951Z,101728.17
2018-08-30T14:52:13.476Z,101731.38
2018-08-30T14:54:44.422Z,101732.92
2018-08-30T14:57:13.423Z,101728.65
2018-08-30T14:59:42.286Z,101735.01
2018-08-30T15:02:11.196Z,101729.11
2018-08-30T15:04:40.156Z,101726.38
2018-08-30T15:07:09.186Z,101734.09
2018-08-30T15:09:43.222Z,101723.69
2018-08-30T15:12:13.304Z,101725.55
2018-08-30T15:14:45.704Z,101720.63
2018-08-30T15:17:28.430Z,101719.52
2018-08-30T15:20:01.319Z,101720.52
2018-08-30T15:22:31.081Z,101718.12
2018-08-30T15:25:02.131Z,101727.41
2018-08-30T15:27:37.905Z,101728.98
2018-08-30T15:30:06.960Z,101731.42
2018-08-30T15:32:35.712Z,101735.02
2018-08-30T15:35:04.710Z,101738.84
2018-08-30T15:37:38.830Z,101735.92
2018-08-30T15:40:07.777Z,101733.50
2018-08-30T15:42:37.704Z,101731.57
2018-08-30T15:45:10.907Z,101737.56
2018-08-30T15:47:41.879Z,101740.51
2018-08-30T15:50:11.024Z,101730.94
2018-08-30T15:52:40.366Z,101739.73
2018-08-30T15:55:14.344Z,101738.66
2018-08-30T15:57:44.379Z,101750.94
2018-08-30T16:00:15.794Z,101745.37
2018-08-30T16:02:46.212Z,101746.20
2018-08-30T16:05:23.345Z,101743.44
2018-08-30T16:07:54.162Z,101745.05
2018-08-30T16:10:25.163Z,101745.01
2018-08-30T16:12:55.119Z,101747.95
2018-08-30T16:15:24.125Z,101741.92
2018-08-30T16:17:55.112Z,101739.64
2018-08-30T16:20:24.079Z,101734.89
2018-08-30T16:23:03.031Z,101737.80
2018-08-30T16:25:34.268Z,101731.05
2018-08-30T16:28:03.397Z,101743.06
2018-08-30T16:30:37.842Z,101735.33
2018-08-30T16:33:07.802Z,101740.84
2018-08-30T16:35:40.227Z,101737.06
2018-08-30T16:38:09.252Z,101743.58
2018-08-30T16:40:41.650Z,101736.28
2018-08-30T16:43:12.608Z,101745.57
2018-08-30T16:45:45.277Z,101744.97
2018-08-30T16:48:17.614Z,101746.89
2018-08-30T16:50:48.502Z,101749.94
2018-08-30T16:53:17.536Z,101743.47
2018-08-30T16:55:58.786Z,101745.40
2018-08-30T16:58:27.710Z,101739.91
2018-08-30T17:00:56.664Z,101743.51
2018-08-30T17:03:32.468Z,101746.24
2018-08-30T17:06:07.380Z,101742.14
2018-08-30T17:08:36.500Z,101747.52
2018-08-30T17:11:07.398Z,101742.89
2018-08-30T17:13:40.160Z,101746.41
2018-08-30T17:16:10.125Z,101745.33
2018-08-30T17:18:46.052Z,101742.50
2018-08-30T17:21:21.925Z,101743.45
2018-08-30T17:23:52.836Z,101747.83
2018-08-30T17:26:23.780Z,101746.20
2018-08-30T17:29:04.130Z,101739.30
2018-08-30T17:31:34.057Z,101744.48
2018-08-30T17:34:03.333Z,101748.59
2018-08-30T17:36:32.249Z,101752.67
2018-08-30T17:39:02.159Z,101756.70
2018-08-30T17:41:31.195Z,101747.67
2018-08-30T17:44:00.111Z,101754.97
2018-08-30T17:46:29.206Z,101749.25
2018-08-30T17:48:58.139Z,101753.40
2018-08-30T17:51:27.112Z,101753.26
2018-08-30T17:53:59.299Z,101755.11
2018-08-30T17:56:35.571Z,101755.70
2018-08-30T17:59:09.256Z,101761.97
2018-08-30T18:01:39.236Z,101756.68
2018-08-30T18:04:08.160Z,101758.92
2018-08-30T18:06:38.116Z,101755.64
2018-08-30T18:09:11.981Z,101752.62
2018-08-30T18:11:48.355Z,101758.28
2018-08-30T18:14:27.360Z,101764.75
2018-08-30T18:17:07.238Z,101764.78
2018-08-30T18:19:36.812Z,101770.14
2018-08-30T18:22:06.877Z,101772.87
2018-08-30T18:24:35.895Z,101778.33
2018-08-30T18:27:05.295Z,101780.14
2018-08-30T18:29:34.360Z,101782.91
2018-08-30T18:32:03.587Z,101787.23
2018-08-30T18:34:33.638Z,101786.13
2018-08-30T18:37:07.188Z,101788.85
2018-08-30T18:39:36.187Z,101791.25
2018-08-30T18:42:05.178Z,101792.55
2018-08-30T18:44:39.381Z,101796.83
2018-08-30T18:47:08.811Z,101801.98
2018-08-30T18:49:38.112Z,101801.70
2018-08-30T18:52:07.337Z,101805.42
2018-08-30T18:54:39.572Z,101801.14
2018-08-30T18:57:10.654Z,101805.79
2018-08-30T18:59:39.585Z,101808.73
2018-08-30T19:02:09.553Z,101811.20
2018-08-30T19:04:39.158Z,101815.27
2018-08-30T19:07:09.128Z,101817.66
2018-08-30T19:09:38.085Z,101821.01
2018-08-30T19:12:10.886Z,101827.09
2018-08-30T19:14:43.927Z,101825.56
2018-08-30T19:17:18.269Z,101827.41
2018-08-30T19:20:01.601Z,101832.78
2018-08-30T19:22:34.486Z,101839.77
2018-08-30T19:25:08.889Z,101841.13
2018-08-30T19:27:37.859Z,101843.48
2018-08-30T19:30:15.465Z,101844.07
2018-08-30T19:32:44.398Z,101834.48
2018-08-30T19:35:25.489Z,101835.20
2018-08-30T19:37:56.481Z,101842.37
2018-08-30T19:40:35.007Z,101843.48
2018-08-30T19:43:03.967Z,101842.88
2018-08-30T19:45:32.888Z,101843.91
2018-08-30T19:48:15.394Z,101848.58
2018-08-30T19:50:55.728Z,101840.27
2018-08-30T19:53:24.729Z,101843.22
2018-08-30T19:56:03.278Z,101846.36
2018-08-30T19:58:32.313Z,101857.77
2018-08-30T20:01:06.402Z,101849.45
2018-08-30T20:03:35.402Z,101852.09
2018-08-30T20:06:06.840Z,101848.94
2018-08-30T20:08:44.079Z,101851.83
2018-08-30T20:11:25.289Z,101844.36
2018-08-30T20:13:55.568Z,101848.25
2018-08-30T20:16:32.041Z,101853.60
2018-08-30T20:19:02.047Z,101851.39
2018-08-30T20:21:30.943Z,101850.43
2018-08-30T20:23:59.891Z,101851.14
2018-08-30T20:26:43.195Z,101856.01
2018-08-30T20:29:12.135Z,101855.56
2018-08-30T20:31:48.902Z,101862.12
2018-08-30T20:34:21.283Z,101850.83
2018-08-30T20:36:50.166Z,101855.05
2018-08-30T20:39:22.918Z,101855.55
2018-08-30T20:41:57.063Z,101855.84
2018-08-30T20:44:28.009Z,101847.14
2018-08-30T20:47:03.945Z,101853.23
2018-08-30T20:49:33.743Z,101842.52
2018-08-30T20:52:05.988Z,101848.94
2018-08-30T20:54:34.870Z,101849.70
2018-08-30T20:57:05.056Z,101850.92
2018-08-30T20:59:56.969Z,101851.63
2018-08-30T21:02:26.276Z,101848.69
2018-08-30T21:04:55.165Z,101848.94
2018-08-30T21:07:29.671Z,101845.31
2018-08-30T21:10:03.060Z,101846.73
2018-08-30T21:12:32.008Z,101847.28
2018-08-30T21:15:05.648Z,101847.16
2018-08-30T21:17:34.685Z,101845.48
2018-08-30T21:20:03.736Z,101851.67
2018-08-30T21:22:51.500Z,101849.56
2018-08-30T21:25:20.401Z,101849.17
2018-08-30T21:27:59.421Z,101856.09
2018-08-30T21:30:29.360Z,101857.63
2018-08-30T21:32:58.293Z,101851.47
2018-08-30T21:35:27.303Z,101857.86
2018-08-30T21:37:59.510Z,101861.36
2018-08-30T21:40:45.077Z,101853.36
2018-08-30T21:43:17.944Z,101853.42
2018-08-30T21:45:46.966Z,101859.80
2018-08-30T21:48:16.233Z,101864.42
2018-08-30T21:50:56.655Z,101863.23
2018-08-30T21:53:43.747Z,101863.17
2018-08-30T21:59:12.804Z,101867.56
2018-08-30T22:02:00.038Z,101864.66
2018-08-30T22:04:35.936Z,101871.61
2018-08-30T22:07:11.910Z,101870.94
2018-08-30T22:09:50.480Z,101870.64
2018-08-30T22:12:33.334Z,101866.56
2018-08-30T22:15:02.378Z,101870.98
2018-08-30T22:17:43.547Z,101871.94
2018-08-30T22:20:19.136Z,101876.24
2018-08-30T22:22:48.055Z,101875.19
2018-08-30T22:25:17.118Z,101873.39
2018-08-30T22:27:45.990Z,101877.33
2018-08-30T22:30:15.010Z,101873.86
2018-08-30T22:32:43.862Z,101872.20
2018-08-30T22:35:12.749Z,101875.92
2018-08-30T22:38:00.319Z,101878.48
2018-08-30T22:40:30.593Z,101875.55
2018-08-30T22:42:59.481Z,101872.09
2018-08-30T22:45:28.375Z,101876.17
2018-08-30T22:47:57.250Z,101879.78
2018-08-30T22:50:29.596Z,101873.90
2018-08-30T22:52:58.594Z,101876.92
2018-08-30T22:55:27.491Z,101870.52
2018-08-30T22:58:07.077Z,101877.98
2018-08-30T23:00:50.083Z,101879.99
2018-08-30T23:03:19.024Z,101870.42
2018-08-30T23:05:55.095Z,101874.06
2018-08-30T23:08:24.174Z,101878.30
2018-08-30T23:10:53.993Z,101871.52
2018-08-30T23:13:27.050Z,101878.23
2018-08-30T23:15:55.917Z,101875.83
2018-08-30T23:18:26.845Z,101874.75
2018-08-30T23:20:55.757Z,101869.86
2018-08-30T23:23:24.641Z,101871.52
2018-08-30T23:25:53.504Z,101875.05
2018-08-30T23:28:22.376Z,101869.86
2018-08-30T23:30:51.394Z,101874.67
2018-08-30T23:33:28.554Z,101869.72
2018-08-30T23:35:57.397Z,101876.19
2018-08-30T23:38:29.819Z,101873.94
2018-08-30T23:40:59.062Z,101875.89
2018-08-30T23:43:27.927Z,101875.81
2018-08-30T23:45:56.811Z,101875.00
2018-08-30T23:48:25.684Z,101878.98
2018-08-30T23:50:54.774Z,101870.31
2018-08-30T23:53:34.968Z,101870.85
2018-08-30T23:56:03.878Z,101874.08
2018-08-30T23:58:44.119Z,101877.41
